createdAt,value
2022-12-18T00:01:38.617Z,102132.81
2022-12-18T00:04:06.780Z,102123.31
2022-12-18T00:06:33.898Z,102129.03
2022-12-18T00:09:01.911Z,102130.44
2022-12-18T00:11:30.456Z,102128.75
2022-12-18T00:13:59.556Z,102133.25
2022-12-18T00:16:27.516Z,102132.53
2022-12-18T00:18:56.147Z,102125.44
2022-12-18T00:21:22.916Z,102126.50
2022-12-18T00:23:50.496Z,102124.28
2022-12-18T00:26:33.218Z,102118.44
2022-12-18T00:29:10.742Z,102122.72
2022-12-18T00:31:38.773Z,102127.97
2022-12-18T00:34:05.575Z,102134.56
2022-12-18T00:36:35.861Z,102131.78
2022-12-18T00:39:05.637Z,102134.53
2022-12-18T00:41:51.570Z,102138.66
2022-12-18T00:44:19.773Z,102137.94
2022-12-18T00:46:48.283Z,102141.91
2022-12-18T00:49:18.903Z,102144.00
2022-12-18T00:51:46.585Z,102146.69
2022-12-18T00:54:14.082Z,102147.75
2022-12-18T00:56:49.724Z,102143.13
2022-12-18T00:59:19.032Z,102143.78
2022-12-18T01:01:46.746Z,102143.22
2022-12-18T01:04:13.721Z,102137.69
2022-12-18T01:06:41.038Z,102130.91
2022-12-18T01:09:07.710Z,102126.22
2022-12-18T01:11:36.897Z,102122.16
2022-12-18T01:14:04.743Z,102125.41
2022-12-18T01:16:31.634Z,102130.50
2022-12-18T01:18:58.463Z,102127.03
2022-12-18T01:21:27.840Z,102122.88
2022-12-18T01:23:56.503Z,102125.84
2022-12-18T01:26:25.236Z,102134.13
2022-12-18T01:28:51.885Z,102136.00
2022-12-18T01:31:34.202Z,102151.25
2022-12-18T01:34:03.485Z,102149.19
2022-12-18T01:36:36.599Z,102148.31
2022-12-18T01:39:06.123Z,102141.50
2022-12-18T01:41:52.108Z,102133.91
2022-12-18T01:44:56.475Z,102132.19
2022-12-18T01:47:43.253Z,102139.38
2022-12-18T01:50:21.012Z,102149.03
2022-12-18T01:52:51.003Z,102141.53
2022-12-18T01:55:21.077Z,102137.00
2022-12-18T01:57:48.396Z,102140.84
2022-12-18T02:00:19.308Z,102138.50
2022-12-18T02:02:48.106Z,102135.75
2022-12-18T02:05:19.891Z,102149.44
2022-12-18T02:08:05.872Z,102144.69
2022-12-18T02:10:34.921Z,102145.75
2022-12-18T02:13:26.351Z,102145.56
2022-12-18T02:16:22.665Z,102154.97
2022-12-18T02:18:55.130Z,102149.25
2022-12-18T02:21:48.639Z,102156.25
2022-12-18T02:24:19.888Z,102158.69
2022-12-18T02:26:52.476Z,102152.34
2022-12-18T02:29:28.466Z,102150.91
2022-12-18T02:32:00.975Z,102152.72
2022-12-18T02:34:31.773Z,102152.81
2022-12-18T02:37:01.516Z,102134.34
2022-12-18T02:39:30.378Z,102137.38
2022-12-18T02:42:08.622Z,102134.66
2022-12-18T02:44:47.123Z,102135.63
2022-12-18T02:47:21.134Z,102135.06
2022-12-18T02:50:20.016Z,102116.47
2022-12-18T02:53:00.850Z,102116.19
2022-12-18T02:55:51.799Z,102113.06
2022-12-18T02:58:28.038Z,102112.94
2022-12-18T03:01:08.761Z,102119.50
2022-12-18T03:03:51.877Z,102138.91
2022-12-18T03:06:28.306Z,102135.44
2022-12-18T03:09:00.850Z,102130.53
2022-12-18T03:11:49.581Z,102150.50
2022-12-18T03:14:21.048Z,102144.59
2022-12-18T03:16:53.501Z,102136.50
2022-12-18T03:19:26.566Z,102129.09
2022-12-18T03:21:57.178Z,102117.28
2022-12-18T03:24:28.877Z,102089.22
2022-12-18T03:27:02.065Z,102093.91
2022-12-18T03:29:38.138Z,102129.84
2022-12-18T03:32:11.788Z,102141.66
2022-12-18T03:34:42.668Z,102138.84
2022-12-18T03:37:12.521Z,102125.75
2022-12-18T03:39:39.251Z,102136.41
2022-12-18T03:42:24.256Z,102131.75
2022-12-18T03:45:10.405Z,102130.63
2022-12-18T03:47:54.112Z,102125.31
2022-12-18T03:50:26.217Z,102124.91
2022-12-18T03:53:01.435Z,102136.25
2022-12-18T03:55:31.456Z,102136.44
2022-12-18T03:58:04.805Z,102139.41
2022-12-18T04:00:42.326Z,102141.59
2022-12-18T04:03:11.388Z,102142.56
2022-12-18T04:05:48.097Z,102127.41
2022-12-18T04:08:17.439Z,102129.13
2022-12-18T04:10:51.323Z,102130.00
2022-12-18T04:13:28.647Z,102125.75
2022-12-18T04:15:56.381Z,102122.53
2022-12-18T04:18:24.018Z,102123.69
2022-12-18T04:20:50.757Z,102112.97
2022-12-18T04:23:18.247Z,102114.91
2022-12-18T04:25:48.038Z,102115.16
2022-12-18T04:28:21.487Z,102112.06
2022-12-18T04:30:49.815Z,102106.81
2022-12-18T04:33:17.270Z,102103.69
2022-12-18T04:35:44.495Z,102096.91
2022-12-18T04:38:11.260Z,102109.91
2022-12-18T04:40:39.278Z,102118.31
2022-12-18T04:43:13.139Z,102115.22
2022-12-18T04:45:40.229Z,102122.25
2022-12-18T04:48:07.617Z,102118.19
2022-12-18T04:50:34.326Z,102117.84
2022-12-18T04:53:00.872Z,102135.13
2022-12-18T04:55:28.539Z,102129.34
2022-12-18T04:57:55.186Z,102124.75
2022-12-18T05:00:22.352Z,102119.47
2022-12-18T05:02:49.158Z,102124.22
2022-12-18T05:05:16.096Z,102138.94
2022-12-18T05:07:42.842Z,102137.34
2022-12-18T05:10:10.390Z,102129.91
2022-12-18T05:12:57.034Z,102130.63
2022-12-18T05:15:23.931Z,102128.25
2022-12-18T05:17:50.708Z,102125.88
2022-12-18T05:20:17.410Z,102124.81
2022-12-18T05:22:44.174Z,102128.59
2022-12-18T05:25:11.099Z,102135.63
2022-12-18T05:27:37.900Z,102130.41
2022-12-18T05:30:05.228Z,102128.38
2022-12-18T05:32:35.310Z,102126.00
2022-12-18T05:35:02.325Z,102136.25
2022-12-18T05:37:29.077Z,102129.81
2022-12-18T05:39:55.912Z,102132.56
2022-12-18T05:42:22.714Z,102131.69
2022-12-18T05:44:49.318Z,102128.97
2022-12-18T05:47:15.968Z,102127.84
2022-12-18T05:49:42.608Z,102127.41
2022-12-18T05:52:09.918Z,102128.41
2022-12-18T05:54:36.739Z,102133.91
2022-12-18T05:57:03.712Z,102125.63
2022-12-18T05:59:30.344Z,102126.59
2022-12-18T06:01:59.407Z,102129.69
2022-12-18T06:04:29.251Z,102129.22
2022-12-18T06:06:57.068Z,102132.19
2022-12-18T06:09:23.859Z,102126.81
2022-12-18T06:11:53.117Z,102137.44
2022-12-18T06:14:19.956Z,102134.66
2022-12-18T06:16:46.513Z,102141.59
2022-12-18T06:19:16.782Z,102137.78
2022-12-18T06:21:43.447Z,102139.22
2022-12-18T06:24:10.169Z,102141.38
2022-12-18T06:26:39.947Z,102144.22
2022-12-18T06:29:06.792Z,102147.06
2022-12-18T06:31:33.709Z,102151.59
2022-12-18T06:34:02.729Z,102153.63
2022-12-18T06:36:29.944Z,102151.94
2022-12-18T06:38:57.651Z,102150.28
2022-12-18T06:41:24.939Z,102159.91
2022-12-18T06:43:54.620Z,102163.13
2022-12-18T06:46:25.133Z,102163.25
2022-12-18T06:48:52.076Z,102177.72
2022-12-18T06:51:21.059Z,102174.28
2022-12-18T06:53:47.940Z,102182.91
2022-12-18T06:56:14.838Z,102192.16
2022-12-18T06:58:41.657Z,102196.19
2022-12-18T07:01:11.461Z,102198.28
2022-12-18T07:03:40.828Z,102187.63
2022-12-18T07:06:14.033Z,102199.81
2022-12-18T07:08:40.739Z,102187.66
2022-12-18T07:11:07.504Z,102188.16
2022-12-18T07:13:34.125Z,102198.81
2022-12-18T07:16:09.737Z,102193.75
2022-12-18T07:18:39.883Z,102197.00
2022-12-18T07:21:09.310Z,102196.97
2022-12-18T07:23:37.056Z,102198.63
2022-12-18T07:26:14.553Z,102196.78
2022-12-18T07:28:42.230Z,102210.41
2022-12-18T07:31:14.783Z,102209.59
2022-12-18T07:33:42.384Z,102209.31
2022-12-18T07:36:11.926Z,102203.69
2022-12-18T07:38:38.835Z,102201.75
2022-12-18T07:41:08.038Z,102202.16
2022-12-18T07:43:35.547Z,102204.03
2022-12-18T07:46:02.291Z,102199.13
2022-12-18T07:48:29.986Z,102196.94
2022-12-18T07:51:07.363Z,102202.97
2022-12-18T07:53:35.191Z,102206.84
2022-12-18T07:56:26.703Z,102218.22
2022-12-18T07:58:51.738Z,102212.38
2022-12-18T08:01:18.484Z,102210.53
2022-12-18T08:03:45.774Z,102215.09
2022-12-18T08:06:12.492Z,102216.97
2022-12-18T08:08:41.130Z,102215.22
2022-12-18T08:11:07.987Z,102213.22
2022-12-18T08:13:34.713Z,102214.97
2022-12-18T08:16:04.905Z,102216.28
2022-12-18T08:18:36.965Z,102209.34
2022-12-18T08:21:13.855Z,102225.50
2022-12-18T08:23:43.344Z,102228.41
2022-12-18T08:26:11.950Z,102226.34
2022-12-18T08:28:39.195Z,102229.56
2022-12-18T08:31:06.722Z,102220.88
2022-12-18T08:33:34.186Z,102223.84
2022-12-18T08:36:01.894Z,102216.03
2022-12-18T08:38:28.542Z,102208.47
2022-12-18T08:41:02.722Z,102202.44
2022-12-18T08:43:47.882Z,102199.53
2022-12-18T08:46:15.057Z,102189.50
2022-12-18T08:48:42.140Z,102192.19
2022-12-18T08:51:10.663Z,102194.25
2022-12-18T08:53:38.551Z,102198.63
2022-12-18T08:56:06.300Z,102184.28
2022-12-18T08:58:33.109Z,102179.09
2022-12-18T09:01:05.408Z,102173.28
2022-12-18T09:03:32.300Z,102172.31
2022-12-18T09:05:59.515Z,102170.38
2022-12-18T09:08:26.898Z,102169.94
2022-12-18T09:10:53.599Z,102167.81
2022-12-18T09:13:22.891Z,102164.91
2022-12-18T09:15:52.217Z,102171.53
2022-12-18T09:18:23.164Z,102176.81
2022-12-18T09:20:52.852Z,102170.31
2022-12-18T09:23:21.725Z,102170.59
2022-12-18T09:25:51.783Z,102176.34
2022-12-18T09:28:22.730Z,102173.25
2022-12-18T09:30:50.498Z,102180.16
2022-12-18T09:33:18.390Z,102176.91
2022-12-18T09:35:46.718Z,102181.78
2022-12-18T09:38:19.935Z,102178.44
2022-12-18T09:40:53.878Z,102184.59
2022-12-18T09:43:43.227Z,102192.69
2022-12-18T09:46:20.397Z,102191.72
2022-12-18T09:48:51.117Z,102203.63
2022-12-18T09:51:20.957Z,102207.28
2022-12-18T09:53:54.987Z,102215.69
2022-12-18T09:56:24.048Z,102224.25
2022-12-18T09:59:00.509Z,102220.09
2022-12-18T10:01:38.901Z,102213.31
2022-12-18T10:04:10.758Z,102204.78
2022-12-18T10:06:37.587Z,102212.34
2022-12-18T10:09:26.738Z,102202.31
2022-12-18T10:12:45.744Z,102193.91
2022-12-18T10:15:22.921Z,102191.09
2022-12-18T10:18:01.899Z,102197.47
2022-12-18T10:20:38.199Z,102206.06
2022-12-18T10:23:48.427Z,102202.22
2022-12-18T10:26:15.569Z,102209.84
2022-12-18T10:28:44.765Z,102197.13
2022-12-18T10:31:18.919Z,102190.94
2022-12-18T10:33:46.530Z,102188.53
2022-12-18T10:36:17.673Z,102176.38
2022-12-18T10:38:44.964Z,102180.53
2022-12-18T10:41:27.461Z,102170.03
2022-12-18T10:44:21.305Z,102167.19
2022-12-18T10:46:57.375Z,102164.16
2022-12-18T10:49:34.668Z,102171.34
2022-12-18T10:52:20.190Z,102168.59
2022-12-18T10:55:02.611Z,102176.41
2022-12-18T10:57:42.229Z,102171.25
2022-12-18T11:00:29.033Z,102165.84
2022-12-18T11:02:57.255Z,102166.66
2022-12-18T11:05:32.259Z,102165.38
2022-12-18T11:08:01.025Z,102176.03
2022-12-18T11:10:39.325Z,102181.28
2022-12-18T11:13:27.673Z,102180.78
2022-12-18T11:16:16.170Z,102177.38
2022-12-18T11:18:48.876Z,102176.25
2022-12-18T11:21:31.614Z,102175.13
2022-12-18T11:24:01.355Z,102172.69
2022-12-18T11:26:38.196Z,102167.41
2022-12-18T11:29:16.708Z,102162.22
2022-12-18T11:31:50.644Z,102159.03
2022-12-18T11:34:28.994Z,102158.25
2022-12-18T11:37:03.723Z,102164.13
2022-12-18T11:39:55.304Z,102166.09
2022-12-18T11:42:35.850Z,102155.94
2022-12-18T11:45:08.717Z,102147.34
2022-12-18T11:47:40.777Z,102149.84
2022-12-18T11:50:25.088Z,102155.94
2022-12-18T11:53:04.181Z,102139.09
2022-12-18T11:56:02.518Z,102134.19
2022-12-18T11:58:55.416Z,102127.53
2022-12-18T12:01:38.950Z,102138.66
2022-12-18T12:04:39.410Z,102131.00
2022-12-18T12:07:22.800Z,102128.75
2022-12-18T12:10:23.326Z,102128.78
2022-12-18T12:13:02.230Z,102134.94
2022-12-18T12:15:47.926Z,102125.38
2022-12-18T12:18:38.225Z,102125.34
2022-12-18T12:21:42.958Z,102124.81
2022-12-18T12:24:38.512Z,102103.28
2022-12-18T12:27:28.923Z,102118.00
2022-12-18T12:30:05.243Z,102130.38
2022-12-18T12:32:38.066Z,102129.53
2022-12-18T12:35:30.161Z,102128.97
2022-12-18T12:38:12.136Z,102123.47
2022-12-18T12:41:02.907Z,102131.94
2022-12-18T12:46:35.257Z,102115.13
2022-12-18T12:49:10.821Z,102109.78
2022-12-18T12:51:44.486Z,102112.78
2022-12-18T12:54:23.051Z,102108.22
2022-12-18T12:57:10.452Z,102104.34
2022-12-18T12:59:56.483Z,102106.84
2022-12-18T13:02:40.483Z,102088.22
2022-12-18T13:05:15.956Z,102089.66
2022-12-18T13:07:55.795Z,102090.38
2022-12-18T13:10:33.017Z,102079.16
2022-12-18T13:13:07.240Z,102075.69
2022-12-18T13:13:43.127Z,102126.75
2022-12-18T13:15:46.154Z,102070.94
2022-12-18T13:18:15.633Z,102066.22
2022-12-18T13:20:50.711Z,102067.09
2022-12-18T13:23:29.410Z,102069.09
2022-12-18T13:25:58.701Z,102073.63
2022-12-18T13:28:37.676Z,102073.09
2022-12-18T13:31:04.660Z,102063.13
2022-12-18T13:34:02.077Z,102062.56
2022-12-18T13:36:34.693Z,102054.09
2022-12-18T13:39:11.078Z,102058.41
2022-12-18T13:41:38.267Z,102061.19
2022-12-18T13:44:35.954Z,102052.06
2022-12-18T13:47:29.396Z,102049.81
2022-12-18T13:50:00.859Z,102043.66
2022-12-18T13:52:40.154Z,102053.13
2022-12-18T13:55:17.655Z,102051.22
2022-12-18T13:57:50.692Z,102057.84
2022-12-18T14:00:29.726Z,102054.38
2022-12-18T14:02:58.867Z,102043.84
2022-12-18T14:05:38.791Z,102046.03
2022-12-18T14:08:11.704Z,102049.78
2022-12-18T14:10:50.702Z,102049.75
2022-12-18T14:13:39.422Z,102050.13
2022-12-18T14:16:08.795Z,102034.72
2022-12-18T14:18:53.524Z,102033.31
2022-12-18T14:21:31.189Z,102029.16
2022-12-18T14:24:19.517Z,102043.31
2022-12-18T14:26:50.044Z,102037.28
2022-12-18T14:29:29.492Z,102039.81
2022-12-18T14:32:29.360Z,102041.47
2022-12-18T14:34:56.624Z,102038.44
2022-12-18T14:37:31.278Z,102053.38
2022-12-18T14:40:15.131Z,102055.88
2022-12-18T14:42:45.234Z,102051.88
2022-12-18T14:45:42.597Z,102048.81
2022-12-18T14:48:29.185Z,102047.28
2022-12-18T14:51:37.403Z,102044.22
2022-12-18T14:54:16.246Z,102042.84
2022-12-18T14:56:49.641Z,102040.09
2022-12-18T14:59:24.543Z,102038.16
2022-12-18T15:02:06.022Z,102022.09
2022-12-18T15:04:38.456Z,102017.09
2022-12-18T15:07:11.280Z,102025.84
2022-12-18T15:09:40.765Z,102025.84
2022-12-18T15:12:25.600Z,102020.91
2022-12-18T15:14:52.590Z,102024.91
2022-12-18T15:17:23.855Z,102028.50
2022-12-18T15:19:59.726Z,102038.75
2022-12-18T15:22:34.730Z,102030.41
2022-12-18T15:25:03.339Z,102026.25
2022-12-18T15:27:39.970Z,102025.41
2022-12-18T15:30:13.222Z,102020.88
2022-12-18T15:32:43.517Z,102024.97
2022-12-18T15:35:13.113Z,102020.56
2022-12-18T15:37:40.122Z,102023.09
2022-12-18T15:40:15.640Z,102022.94
2022-12-18T15:43:08.455Z,102029.84
2022-12-18T15:45:38.444Z,102023.47
2022-12-18T15:48:25.897Z,102019.03
2022-12-18T15:50:59.833Z,102016.31
2022-12-18T15:53:32.370Z,102032.63
2022-12-18T15:56:28.687Z,102024.75
2022-12-18T15:59:18.148Z,102031.56
2022-12-18T16:01:47.769Z,102036.25
2022-12-18T16:04:21.665Z,102027.69
2022-12-18T16:09:37.910Z,102025.75
2022-12-18T16:12:04.973Z,102025.06
2022-12-18T16:14:33.277Z,102028.66
2022-12-18T16:17:01.783Z,102038.88
2022-12-18T16:19:31.022Z,102033.38
2022-12-18T16:21:58.759Z,102029.91
2022-12-18T16:24:30.100Z,102023.25
2022-12-18T16:26:57.613Z,102025.19
2022-12-18T16:29:28.280Z,102027.81
2022-12-18T16:31:59.220Z,102014.41
2022-12-18T16:34:29.303Z,102009.41
2022-12-18T16:37:04.673Z,102003.19
2022-12-18T16:39:35.100Z,101991.00
2022-12-18T16:42:05.812Z,101989.19
2022-12-18T16:44:33.626Z,101996.00
2022-12-18T16:47:02.899Z,101985.88
2022-12-18T16:49:32.609Z,101988.13
2022-12-18T16:52:05.265Z,101989.19
2022-12-18T16:54:35.775Z,101984.75
2022-12-18T16:57:08.200Z,101981.44
2022-12-18T16:59:36.267Z,101979.09
2022-12-18T17:02:03.554Z,101982.56
2022-12-18T17:04:34.204Z,101983.13
2022-12-18T17:07:01.828Z,101985.63
2022-12-18T17:09:35.342Z,101983.94
2022-12-18T17:12:10.540Z,101967.47
2022-12-18T17:14:37.581Z,101972.84
2022-12-18T17:17:20.879Z,101972.03
2022-12-18T17:19:53.848Z,101981.31
2022-12-18T17:22:26.926Z,101987.53
2022-12-18T17:24:56.870Z,101985.06
2022-12-18T17:27:23.668Z,101982.25
2022-12-18T17:29:51.088Z,101988.94
2022-12-18T17:32:18.077Z,101987.00
2022-12-18T17:34:45.016Z,101979.94
2022-12-18T17:37:11.810Z,101984.50
2022-12-18T17:39:38.477Z,101977.31
2022-12-18T17:42:05.336Z,101969.00
2022-12-18T17:44:33.995Z,101963.47
2022-12-18T17:47:00.724Z,101950.19
2022-12-18T17:49:32.509Z,101966.38
2022-12-18T17:52:02.521Z,101967.06
2022-12-18T17:54:31.721Z,101975.09
2022-12-18T17:57:00.100Z,101962.47
2022-12-18T17:59:27.134Z,101959.72
2022-12-18T18:01:54.123Z,101954.16
2022-12-18T18:04:22.929Z,101944.31
2022-12-18T18:06:50.560Z,101957.75
2022-12-18T18:09:19.562Z,101955.69
2022-12-18T18:12:04.708Z,101951.28
2022-12-18T18:14:31.913Z,101942.69
2022-12-18T18:17:04.102Z,101945.59
2022-12-18T18:19:35.104Z,101947.53
2022-12-18T18:22:02.938Z,101940.72
2022-12-18T18:24:30.493Z,101955.63
2022-12-18T18:27:00.028Z,101954.25
2022-12-18T18:29:28.313Z,101955.06
2022-12-18T18:31:56.084Z,101955.94
2022-12-18T18:34:24.435Z,101959.66
2022-12-18T18:36:51.734Z,101963.41
2022-12-18T18:39:19.187Z,101958.28
2022-12-18T18:41:47.953Z,101962.84
2022-12-18T18:44:14.959Z,101959.53
2022-12-18T18:46:41.714Z,101952.06
2022-12-18T18:49:08.459Z,101950.38
2022-12-18T18:51:35.583Z,101948.75
2022-12-18T18:54:02.268Z,101939.84
2022-12-18T18:59:15.954Z,101929.69
2022-12-18T19:01:43.069Z,101925.25
2022-12-18T19:04:12.884Z,101931.63
2022-12-18T19:06:50.104Z,101936.91
2022-12-18T19:09:17.324Z,101925.56
2022-12-18T19:12:05.422Z,101913.41
2022-12-18T19:14:35.833Z,101916.34
2022-12-18T19:17:02.826Z,101930.28
2022-12-18T19:19:33.107Z,101927.41
2022-12-18T19:21:59.714Z,101929.47
2022-12-18T19:24:35.998Z,101915.59
2022-12-18T19:27:05.258Z,101906.72
2022-12-18T19:29:32.327Z,101907.03
2022-12-18T19:32:04.505Z,101913.63
2022-12-18T19:34:34.000Z,101901.72
2022-12-18T19:37:01.278Z,101904.47
2022-12-18T19:39:27.981Z,101895.06
2022-12-18T19:41:55.536Z,101900.06
2022-12-18T19:44:22.627Z,101906.41
2022-12-18T19:46:52.618Z,101896.00
2022-12-18T19:49:19.297Z,101893.50
2022-12-18T19:51:46.267Z,101896.75
2022-12-18T19:54:17.463Z,101886.59
2022-12-18T19:56:45.053Z,101878.63
2022-12-18T19:59:11.900Z,101875.13
2022-12-18T20:01:39.106Z,101875.19
2022-12-18T20:04:09.306Z,101874.13
2022-12-18T20:06:45.932Z,101879.28
2022-12-18T20:09:12.622Z,101878.63
2022-12-18T20:11:41.511Z,101876.00
2022-12-18T20:14:12.235Z,101878.66
2022-12-18T20:16:41.940Z,101873.00
2022-12-18T20:19:10.908Z,101883.78
2022-12-18T20:21:37.952Z,101881.84
2022-12-18T20:24:04.753Z,101898.19
2022-12-18T20:26:33.708Z,101874.94
2022-12-18T20:29:11.095Z,101883.88
2022-12-18T20:31:41.216Z,101873.47
2022-12-18T20:34:11.426Z,101853.34
2022-12-18T20:36:38.693Z,101862.97
2022-12-18T20:39:08.735Z,101873.47
2022-12-18T20:41:37.943Z,101873.22
2022-12-18T20:44:21.788Z,101877.25
2022-12-18T20:46:54.777Z,101872.59
2022-12-18T20:49:22.580Z,101863.72
2022-12-18T20:51:57.135Z,101864.06
2022-12-18T20:54:24.893Z,101861.00
2022-12-18T20:56:54.304Z,101867.66
2022-12-18T20:59:23.046Z,101856.63
2022-12-18T21:01:50.090Z,101858.81
2022-12-18T21:04:18.590Z,101859.03
2022-12-18T21:06:53.280Z,101865.81
2022-12-18T21:09:23.150Z,101863.75
2022-12-18T21:12:08.825Z,101857.63
2022-12-18T21:14:38.673Z,101863.88
2022-12-18T21:17:05.882Z,101873.16
2022-12-18T21:19:32.493Z,101882.31
2022-12-18T21:22:01.769Z,101873.81
2022-12-18T21:24:28.870Z,101872.66
2022-12-18T21:26:59.596Z,101875.66
2022-12-18T21:29:26.510Z,101882.34
2022-12-18T21:31:54.664Z,101877.34
2022-12-18T21:34:22.643Z,101863.78
2022-12-18T21:36:49.750Z,101856.31
2022-12-18T21:39:16.923Z,101865.19
2022-12-18T21:42:02.243Z,101862.16
2022-12-18T21:44:29.447Z,101861.59
2022-12-18T21:47:02.466Z,101862.13
2022-12-18T21:49:36.327Z,101861.31
2022-12-18T21:52:02.951Z,101855.47
2022-12-18T21:54:30.101Z,101859.38
2022-12-18T21:57:00.925Z,101880.22
2022-12-18T21:59:29.346Z,101891.34
2022-12-18T22:01:58.142Z,101895.44
2022-12-18T22:04:25.370Z,101898.91
2022-12-18T22:06:55.551Z,101881.84
2022-12-18T22:09:25.171Z,101876.44
2022-12-18T22:11:52.234Z,101889.06
2022-12-18T22:14:19.587Z,101887.56
2022-12-18T22:16:46.527Z,101878.66
2022-12-18T22:19:14.176Z,101874.19
2022-12-18T22:21:46.601Z,101877.50
2022-12-18T22:24:14.717Z,101877.50
2022-12-18T22:26:41.710Z,101866.97
2022-12-18T22:29:31.588Z,101872.47
2022-12-18T22:32:00.395Z,101866.97
2022-12-18T22:34:27.091Z,101875.28
2022-12-18T22:36:53.689Z,101877.75
2022-12-18T22:39:23.414Z,101879.66
2022-12-18T22:41:51.272Z,101879.66
2022-12-18T22:44:18.289Z,101879.06
2022-12-18T22:46:46.734Z,101869.22
2022-12-18T22:49:18.557Z,101880.72
2022-12-18T22:51:45.195Z,101882.50
2022-12-18T22:54:12.505Z,101881.81
2022-12-18T22:56:39.531Z,101875.41
2022-12-18T22:59:06.151Z,101875.97
2022-12-18T23:01:33.324Z,101878.97
2022-12-18T23:04:04.477Z,101875.28
2022-12-18T23:06:31.134Z,101876.41
2022-12-18T23:08:58.192Z,101873.22
2022-12-18T23:11:25.820Z,101871.56
2022-12-18T23:13:55.732Z,101868.09
2022-12-18T23:16:25.663Z,101865.50
2022-12-18T23:18:55.662Z,101861.38
2022-12-18T23:21:25.748Z,101858.47
2022-12-18T23:23:52.770Z,101853.13
2022-12-18T23:26:22.642Z,101850.50
2022-12-18T23:28:50.339Z,101853.91
2022-12-18T23:31:19.078Z,101861.09
2022-12-18T23:33:46.647Z,101854.78
2022-12-18T23:36:13.905Z,101849.03
2022-12-18T23:38:41.287Z,101845.13
2022-12-18T23:41:08.890Z,101843.19
2022-12-18T23:43:35.651Z,101838.50
2022-12-18T23:46:02.314Z,101843.78
2022-12-18T23:48:29.064Z,101843.31
2022-12-18T23:50:55.946Z,101834.28
2022-12-18T23:53:22.451Z,101824.19
2022-12-18T23:55:51.446Z,101824.69
2022-12-18T23:58:19.989Z,101822.31
